createdAt,value
2022-08-20T00:00:28.740Z,100812.94
2022-08-20T00:03:00.940Z,100813.50
2022-08-20T00:05:33.600Z,100812.97
2022-08-20T00:08:00.644Z,100816.91
2022-08-20T00:10:29.258Z,100811.91
2022-08-20T00:12:56.621Z,100800.97
2022-08-20T00:15:28.420Z,100802.63
2022-08-20T00:17:56.212Z,100811.91
2022-08-20T00:20:25.683Z,100815.25
2022-08-20T00:22:52.195Z,100824.81
2022-08-20T00:25:19.568Z,100820.06
2022-08-20T00:27:45.982Z,100812.75
2022-08-20T00:30:14.768Z,100804.88
2022-08-20T00:32:45.779Z,100814.44
2022-08-20T00:35:14.269Z,100824.25
2022-08-20T00:37:40.696Z,100823.72
2022-08-20T00:40:22.230Z,100832.97
2022-08-20T00:42:58.078Z,100832.72
2022-08-20T00:45:30.045Z,100835.53
2022-08-20T00:47:57.113Z,100829.34
2022-08-20T00:50:29.616Z,100829.94
2022-08-20T00:52:56.100Z,100828.81
2022-08-20T00:55:29.628Z,100821.25
2022-08-20T00:58:02.147Z,100837.78
2022-08-20T01:00:37.571Z,100828.81
2022-08-20T01:03:08.403Z,100832.75
2022-08-20T01:05:37.424Z,100829.09
2022-08-20T01:08:04.897Z,100829.09
2022-08-20T01:10:36.507Z,100824.63
2022-08-20T01:13:10.936Z,100819.59
2022-08-20T01:15:43.318Z,100818.50
2022-08-20T01:18:13.738Z,100816.84
2022-08-20T01:21:02.837Z,100818.81
2022-08-20T01:23:32.403Z,100807.00
2022-08-20T01:26:08.605Z,100810.09
2022-08-20T01:28:41.132Z,100804.50
2022-08-20T01:31:11.891Z,100804.78
2022-08-20T01:33:38.786Z,100810.97
2022-08-20T01:36:06.284Z,100814.91
2022-08-20T01:38:34.530Z,100820.56
2022-08-20T01:41:10.414Z,100803.16
2022-08-20T01:43:37.472Z,100809.34
2022-08-20T01:46:04.834Z,100812.16
2022-08-20T01:48:31.663Z,100806.56
2022-08-20T01:51:09.972Z,100806.25
2022-08-20T01:53:42.550Z,100813.00
2022-08-20T01:56:14.200Z,100809.91
2022-08-20T01:58:45.425Z,100809.34
2022-08-20T02:01:46.898Z,100810.16
2022-08-20T02:04:17.021Z,100822.22
2022-08-20T02:06:56.271Z,100811.56
2022-08-20T02:09:24.772Z,100808.75
2022-08-20T02:11:53.234Z,100821.63
2022-08-20T02:14:20.252Z,100816.00
2022-08-20T02:16:54.793Z,100826.16
2022-08-20T02:19:32.092Z,100828.41
2022-08-20T02:22:02.344Z,100829.50
2022-08-20T02:24:29.920Z,100828.13
2022-08-20T02:26:56.610Z,100827.88
2022-08-20T02:29:23.785Z,100834.59
2022-08-20T02:32:24.374Z,100830.69
2022-08-20T02:34:36.799Z,100830.44
2022-08-20T02:37:05.487Z,100831.28
2022-08-20T02:39:35.244Z,100831.84
2022-08-20T02:42:05.208Z,100830.16
2022-08-20T02:44:32.233Z,100829.31
2022-08-20T02:46:59.907Z,100834.66
2022-08-20T02:49:26.369Z,100833.81
2022-08-20T02:51:52.880Z,100827.97
2022-08-20T02:54:19.331Z,100824.63
2022-08-20T02:56:45.835Z,100834.16
2022-08-20T02:59:12.585Z,100838.63
2022-08-20T03:01:46.145Z,100831.38
2022-08-20T03:04:12.581Z,100831.94
2022-08-20T03:06:39.011Z,100837.00
2022-08-20T03:09:07.676Z,100845.69
2022-08-20T03:11:34.872Z,100845.69
2022-08-20T03:14:02.141Z,100842.06
2022-08-20T03:16:28.642Z,100848.47
2022-08-20T03:18:55.321Z,100853.25
2022-08-20T03:21:21.905Z,100848.47
2022-08-20T03:23:48.460Z,100851.59
2022-08-20T03:26:16.412Z,100858.03
2022-08-20T03:28:43.583Z,100858.88
2022-08-20T03:31:10.464Z,100861.94
2022-08-20T03:33:52.633Z,100865.00
2022-08-20T03:36:22.133Z,100864.19
2022-08-20T03:38:55.302Z,100856.63
2022-08-20T03:41:21.872Z,100858.88
2022-08-20T03:43:48.288Z,100861.69
2022-08-20T03:46:22.055Z,100868.13
2022-08-20T03:48:56.649Z,100863.63
2022-08-20T03:51:29.492Z,100862.78
2022-08-20T03:53:56.872Z,100863.91
2022-08-20T03:56:23.620Z,100857.75
2022-08-20T03:58:50.120Z,100859.75
2022-08-20T04:01:37.046Z,100856.66
2022-08-20T04:04:04.192Z,100859.75
2022-08-20T04:06:30.925Z,100856.66
2022-08-20T04:08:57.537Z,100851.91
2022-08-20T04:11:24.365Z,100855.53
2022-08-20T04:13:51.083Z,100855.53
2022-08-20T04:16:18.082Z,100845.44
2022-08-20T04:19:01.634Z,100860.03
2022-08-20T04:21:33.578Z,100860.28
2022-08-20T04:24:02.398Z,100862.00
2022-08-20T04:26:29.749Z,100858.34
2022-08-20T04:28:56.254Z,100855.84
2022-08-20T04:31:32.857Z,100857.50
2022-08-20T04:34:01.705Z,100855.81
2022-08-20T04:36:28.249Z,100856.09
2022-08-20T04:38:54.821Z,100858.88
2022-08-20T04:41:23.987Z,100870.13
2022-08-20T04:43:55.451Z,100867.88
2022-08-20T04:46:25.595Z,100870.97
2022-08-20T04:48:52.332Z,100880.19
2022-08-20T04:51:18.898Z,100874.59
2022-08-20T04:53:51.772Z,100876.81
2022-08-20T04:56:23.361Z,100883.00
2022-08-20T04:58:51.383Z,100884.13
2022-08-20T05:01:18.287Z,100880.19
2022-08-20T05:03:47.554Z,100889.97
2022-08-20T05:06:14.148Z,100892.50
2022-08-20T05:08:40.630Z,100889.13
2022-08-20T05:11:33.548Z,100893.63
2022-08-20T05:13:55.797Z,100895.88
2022-08-20T05:16:23.986Z,100896.44
2022-08-20T05:18:52.391Z,100903.72
2022-08-20T05:21:20.332Z,100916.03
2022-08-20T05:23:46.836Z,100917.97
2022-08-20T05:26:15.136Z,100914.34
2022-08-20T05:28:54.162Z,100916.59
2022-08-20T05:31:32.045Z,100919.41
2022-08-20T05:34:10.315Z,100912.69
2022-08-20T05:36:43.160Z,100925.00
2022-08-20T05:39:11.082Z,100921.09
2022-08-20T05:41:38.451Z,100926.69
2022-08-20T05:44:09.868Z,100931.44
2022-08-20T05:46:40.416Z,100928.34
2022-08-20T05:49:11.842Z,100932.81
2022-08-20T05:51:38.275Z,100923.59
2022-08-20T05:54:06.109Z,100930.03
2022-08-20T05:56:33.882Z,100936.75
2022-08-20T05:59:03.188Z,100924.97
2022-08-20T06:01:30.333Z,100923.88
2022-08-20T06:04:16.040Z,100918.81
2022-08-20T06:06:46.341Z,100921.63
2022-08-20T06:09:31.463Z,100928.59
2022-08-20T06:12:04.809Z,100919.94
2022-08-20T06:14:32.210Z,100908.75
2022-08-20T06:17:07.535Z,100917.97
2022-08-20T06:19:35.175Z,100917.44
2022-08-20T06:22:17.305Z,100916.31
2022-08-20T06:24:48.016Z,100916.00
2022-08-20T06:27:16.249Z,100921.31
2022-08-20T06:29:43.445Z,100924.09
2022-08-20T06:32:10.420Z,100923.81
2022-08-20T06:34:37.118Z,100927.13
2022-08-20T06:37:14.476Z,100932.16
2022-08-20T06:39:40.921Z,100929.94
2022-08-20T06:42:07.509Z,100931.03
2022-08-20T06:44:34.349Z,100929.06
2022-08-20T06:47:01.689Z,100922.59
2022-08-20T06:49:28.950Z,100926.50
2022-08-20T06:52:02.205Z,100931.00
2022-08-20T06:54:29.372Z,100926.50
2022-08-20T06:56:56.404Z,100930.47
2022-08-20T06:59:22.871Z,100930.47
2022-08-20T07:01:56.468Z,100935.50
2022-08-20T07:04:25.801Z,100928.78
2022-08-20T07:06:57.460Z,100936.03
2022-08-20T07:09:25.541Z,100938.28
2022-08-20T07:11:52.777Z,100941.91
2022-08-20T07:14:19.873Z,100937.97
2022-08-20T07:16:47.304Z,100941.56
2022-08-20T07:19:14.515Z,100951.13
2022-08-20T07:21:41.197Z,100947.19
2022-08-20T07:24:09.590Z,100949.94
2022-08-20T07:26:36.112Z,100954.97
2022-08-20T07:29:02.777Z,100946.56
2022-08-20T07:31:48.202Z,100950.19
2022-08-20T07:34:14.821Z,100957.16
2022-08-20T07:36:41.409Z,100954.88
2022-08-20T07:39:07.845Z,100957.38
2022-08-20T07:41:35.969Z,100952.53
2022-08-20T07:44:02.650Z,100952.75
2022-08-20T07:46:31.723Z,100954.09
2022-08-20T07:48:59.029Z,100952.94
2022-08-20T07:51:25.581Z,100952.34
2022-08-20T07:53:52.718Z,100940.25
2022-08-20T07:56:21.719Z,100951.47
2022-08-20T07:58:52.148Z,100951.47
2022-08-20T08:01:21.338Z,100957.97
2022-08-20T08:03:49.944Z,100951.81
2022-08-20T08:06:28.336Z,100960.81
2022-08-20T08:08:58.239Z,100957.44
2022-08-20T08:11:24.726Z,100954.09
2022-08-20T08:13:51.764Z,100952.94
2022-08-20T08:16:20.126Z,100948.41
2022-08-20T08:18:53.537Z,100950.59
2022-08-20T08:21:20.933Z,100947.25
2022-08-20T08:23:47.342Z,100947.81
2022-08-20T08:26:19.140Z,100953.69
2022-08-20T08:28:46.655Z,100950.00
2022-08-20T08:31:13.581Z,100962.63
2022-08-20T08:33:40.813Z,100957.25
2022-08-20T08:36:12.589Z,100963.97
2022-08-20T08:38:42.918Z,100967.09
2022-08-20T08:41:31.196Z,100974.44
2022-08-20T08:44:14.083Z,100964.06
2022-08-20T08:46:48.346Z,100964.31
2022-08-20T08:49:19.564Z,100966.78
2022-08-20T08:51:56.037Z,100960.50
2022-08-20T08:54:27.434Z,100959.22
2022-08-20T08:56:54.662Z,100956.78
2022-08-20T08:59:23.074Z,100955.13
2022-08-20T09:01:56.939Z,100956.50
2022-08-20T09:04:32.455Z,100958.34
2022-08-20T09:07:01.243Z,100961.59
2022-08-20T09:09:31.350Z,100952.97
2022-08-20T09:12:04.504Z,100958.53
2022-08-20T09:14:31.115Z,100963.63
2022-08-20T09:16:57.557Z,100962.44
2022-08-20T09:19:24.067Z,100953.03
2022-08-20T09:21:50.567Z,100960.94
2022-08-20T09:24:17.562Z,100963.16
2022-08-20T09:26:44.348Z,100959.44
2022-08-20T09:29:11.163Z,100960.53
2022-08-20T09:31:38.931Z,100951.75
2022-08-20T09:34:06.070Z,100951.06
2022-08-20T09:36:33.304Z,100954.00
2022-08-20T09:39:00.795Z,100954.16
2022-08-20T09:41:30.626Z,100949.59
2022-08-20T09:43:57.132Z,100966.41
2022-08-20T09:46:26.971Z,100969.97
2022-08-20T09:48:54.178Z,100964.94
2022-08-20T09:51:20.770Z,100964.19
2022-08-20T09:53:47.419Z,100958.94
2022-08-20T09:56:14.009Z,100958.78
2022-08-20T09:58:43.453Z,100951.13
2022-08-20T10:01:16.614Z,100949.28
2022-08-20T10:03:44.481Z,100941.28
2022-08-20T10:06:11.461Z,100955.22
2022-08-20T10:08:38.404Z,100946.69
2022-08-20T10:11:04.961Z,100931.50
2022-08-20T10:13:31.464Z,100947.72
2022-08-20T10:15:57.884Z,100955.19
2022-08-20T10:18:24.428Z,100949.69
2022-08-20T10:20:50.853Z,100952.84
2022-08-20T10:23:17.321Z,100959.84
2022-08-20T10:25:43.771Z,100948.16
2022-08-20T10:28:10.282Z,100948.59
2022-08-20T10:30:36.767Z,100956.53
2022-08-20T10:33:03.198Z,100950.66
2022-08-20T10:35:29.916Z,100953.69
2022-08-20T10:37:56.476Z,100939.47
2022-08-20T10:40:23.081Z,100948.06
2022-08-20T10:42:49.610Z,100957.47
2022-08-20T10:45:16.742Z,100949.19
2022-08-20T10:47:44.776Z,100949.59
2022-08-20T10:50:14.922Z,100957.22
2022-08-20T10:52:41.444Z,100946.13
2022-08-20T10:55:08.723Z,100949.84
2022-08-20T10:57:35.248Z,100943.38
2022-08-20T11:00:01.934Z,100955.66
2022-08-20T11:02:29.465Z,100953.03
2022-08-20T11:04:56.405Z,100942.16
2022-08-20T11:07:59.712Z,100951.63
2022-08-20T11:10:14.040Z,100935.84
2022-08-20T11:12:41.001Z,100929.75
2022-08-20T11:15:10.840Z,100950.22
2022-08-20T11:17:40.935Z,100956.78
2022-08-20T11:20:08.329Z,100957.88
2022-08-20T11:22:35.240Z,100959.66
2022-08-20T11:25:01.803Z,100949.50
2022-08-20T11:27:33.056Z,100935.94
2022-08-20T11:29:59.953Z,100944.63
2022-08-20T11:32:27.334Z,100962.13
2022-08-20T11:34:54.050Z,100953.75
2022-08-20T11:37:24.410Z,100951.19
2022-08-20T11:39:51.960Z,100945.09
2022-08-20T11:42:18.725Z,100944.59
2022-08-20T11:44:45.163Z,100939.81
2022-08-20T11:47:23.764Z,100943.75
2022-08-20T11:50:00.324Z,100933.72
2022-08-20T11:52:27.563Z,100933.50
2022-08-20T11:54:56.494Z,100940.78
2022-08-20T11:57:26.708Z,100940.53
2022-08-20T11:59:54.979Z,100947.03
2022-08-20T12:02:22.262Z,100944.44
2022-08-20T12:04:49.167Z,100949.19
2022-08-20T12:07:18.978Z,100948.56
2022-08-20T12:09:50.941Z,100945.94
2022-08-20T12:12:20.410Z,100947.91
2022-08-20T12:14:46.982Z,100944.13
2022-08-20T12:17:39.825Z,100940.50
2022-08-20T12:20:11.882Z,100940.00
2022-08-20T12:22:39.035Z,100927.03
2022-08-20T12:25:08.059Z,100931.91
2022-08-20T12:27:36.140Z,100953.78
2022-08-20T12:30:10.273Z,100944.72
2022-08-20T12:32:37.024Z,100934.59
2022-08-20T12:35:05.878Z,100936.59
2022-08-20T12:37:32.924Z,100950.31
2022-08-20T12:40:01.412Z,100935.94
2022-08-20T12:42:30.514Z,100932.78
2022-08-20T12:44:57.977Z,100937.06
2022-08-20T12:47:28.037Z,100923.19
2022-08-20T12:49:57.916Z,100927.09
2022-08-20T12:52:25.337Z,100921.44
2022-08-20T12:54:51.919Z,100938.81
2022-08-20T12:57:34.312Z,100939.00
2022-08-20T13:00:07.145Z,100936.38
2022-08-20T13:02:33.742Z,100931.88
2022-08-20T13:05:04.943Z,100917.91
2022-08-20T13:07:32.732Z,100945.19
2022-08-20T13:10:00.017Z,100933.41
2022-08-20T13:12:26.960Z,100921.13
2022-08-20T13:14:53.709Z,100930.63
2022-08-20T13:17:20.361Z,100934.13
2022-08-20T13:20:08.040Z,100928.44
2022-08-20T13:22:34.530Z,100926.78
2022-08-20T13:25:01.040Z,100933.06
2022-08-20T13:27:27.761Z,100924.03
2022-08-20T13:29:58.540Z,100921.44
2022-08-20T13:32:25.882Z,100924.38
2022-08-20T13:34:52.390Z,100923.22
2022-08-20T13:37:25.984Z,100924.88
2022-08-20T13:39:53.763Z,100926.69
2022-08-20T13:42:20.972Z,100920.69
2022-08-20T13:44:48.527Z,100930.22
2022-08-20T13:47:17.497Z,100921.41
2022-08-20T13:49:44.710Z,100916.22
2022-08-20T13:52:11.751Z,100922.72
2022-08-20T13:54:39.101Z,100927.34
2022-08-20T13:57:17.772Z,100913.53
2022-08-20T13:59:46.310Z,100926.69
2022-08-20T14:02:14.428Z,100919.53
2022-08-20T14:04:41.287Z,100908.44
2022-08-20T14:07:16.247Z,100899.94
2022-08-20T14:09:45.858Z,100922.44
2022-08-20T14:12:13.370Z,100910.97
2022-08-20T14:14:41.063Z,100916.97
2022-08-20T14:17:18.656Z,100917.69
2022-08-20T14:19:46.245Z,100915.47
2022-08-20T14:22:13.092Z,100923.94
2022-08-20T14:24:39.777Z,100921.38
2022-08-20T14:27:08.246Z,100920.50
2022-08-20T14:29:36.702Z,100919.19
2022-08-20T14:32:04.518Z,100908.91
2022-08-20T14:34:31.909Z,100912.41
2022-08-20T14:37:17.128Z,100913.41
2022-08-20T14:39:45.308Z,100903.13
2022-08-20T14:42:12.738Z,100914.06
2022-08-20T14:44:39.841Z,100926.28
2022-08-20T14:47:16.980Z,100916.56
2022-08-20T14:49:44.636Z,100918.69
2022-08-20T14:52:12.227Z,100920.63
2022-08-20T14:54:39.309Z,100923.53
2022-08-20T14:57:12.951Z,100918.44
2022-08-20T14:59:41.258Z,100920.41
2022-08-20T15:02:09.704Z,100904.81
2022-08-20T15:04:37.038Z,100890.06
2022-08-20T15:07:10.952Z,100892.06
2022-08-20T15:09:40.721Z,100885.22
2022-08-20T15:12:07.333Z,100890.34
2022-08-20T15:14:33.749Z,100883.19
2022-08-20T15:17:00.235Z,100892.78
2022-08-20T15:19:26.658Z,100891.56
2022-08-20T15:21:53.191Z,100887.13
2022-08-20T15:24:19.768Z,100889.63
2022-08-20T15:26:46.445Z,100891.91
2022-08-20T15:29:22.818Z,100893.41
2022-08-20T15:31:50.788Z,100892.97
2022-08-20T15:34:17.570Z,100882.03
2022-08-20T15:36:44.733Z,100889.28
2022-08-20T15:39:11.299Z,100887.25
2022-08-20T15:41:37.735Z,100886.25
2022-08-20T15:44:04.650Z,100883.38
2022-08-20T15:46:36.249Z,100887.91
2022-08-20T15:49:04.621Z,100893.69
2022-08-20T15:51:46.932Z,100906.31
2022-08-20T15:54:25.142Z,100900.47
2022-08-20T15:57:18.985Z,100900.72
2022-08-20T15:59:48.387Z,100901.56
2022-08-20T16:02:42.456Z,100892.53
2022-08-20T16:05:21.344Z,100893.97
2022-08-20T16:08:06.886Z,100883.81
2022-08-20T16:11:18.256Z,100891.16
2022-08-20T16:14:11.091Z,100897.59
2022-08-20T16:16:46.689Z,100888.81
2022-08-20T16:19:26.311Z,100887.88
2022-08-20T16:21:54.489Z,100888.06
2022-08-20T16:24:21.287Z,100896.44
2022-08-20T16:27:01.215Z,100879.38
2022-08-20T16:29:56.385Z,100884.38
2022-08-20T16:32:41.662Z,100883.91
2022-08-20T16:35:14.124Z,100886.06
2022-08-20T16:38:05.594Z,100893.75
2022-08-20T16:40:43.516Z,100885.75
2022-08-20T16:43:29.027Z,100894.63
2022-08-20T16:46:02.030Z,100906.53
2022-08-20T16:48:36.924Z,100895.81
2022-08-20T16:51:08.839Z,100909.84
2022-08-20T16:53:35.571Z,100894.56
2022-08-20T16:56:02.307Z,100888.63
2022-08-20T16:58:28.745Z,100910.22
2022-08-20T17:01:13.890Z,100907.91
2022-08-20T17:03:50.115Z,100909.69
2022-08-20T17:06:27.198Z,100907.56
2022-08-20T17:08:55.122Z,100895.56
2022-08-20T17:11:33.103Z,100909.84
2022-08-20T17:14:19.301Z,100908.88
2022-08-20T17:16:50.452Z,100906.16
2022-08-20T17:19:27.013Z,100907.97
2022-08-20T17:21:53.757Z,100914.75
2022-08-20T17:24:23.221Z,100909.22
2022-08-20T17:26:59.632Z,100907.69
2022-08-20T17:29:29.891Z,100910.84
2022-08-20T17:32:01.240Z,100912.00
2022-08-20T17:34:42.178Z,100909.84
2022-08-20T17:37:19.252Z,100909.00
2022-08-20T17:39:49.010Z,100911.31
2022-08-20T17:42:25.679Z,100914.63
2022-08-20T17:45:05.365Z,100913.78
2022-08-20T17:47:36.035Z,100915.44
2022-08-20T17:50:15.946Z,100922.97
2022-08-20T17:52:48.700Z,100921.94
2022-08-20T17:55:15.271Z,100918.94
2022-08-20T17:57:45.077Z,100919.56
2022-08-20T18:00:17.245Z,100918.34
2022-08-20T18:02:44.368Z,100926.47
2022-08-20T18:05:20.397Z,100918.78
2022-08-20T18:08:06.790Z,100938.84
2022-08-20T18:10:52.333Z,100943.88
2022-08-20T18:13:24.441Z,100935.53
2022-08-20T18:15:56.386Z,100944.06
2022-08-20T18:18:56.578Z,100941.06
2022-08-20T18:21:55.894Z,100944.88
2022-08-20T18:24:33.711Z,100945.31
2022-08-20T18:27:08.761Z,100943.47
2022-08-20T18:29:39.057Z,100957.34
2022-08-20T18:32:31.848Z,100955.50
2022-08-20T18:35:12.879Z,100957.03
2022-08-20T18:37:39.522Z,100959.59
2022-08-20T18:40:28.776Z,100970.00
2022-08-20T18:42:58.755Z,100969.44
2022-08-20T18:45:30.075Z,100970.00
2022-08-20T18:47:56.949Z,100971.69
2022-08-20T18:50:38.629Z,100980.63
2022-08-20T18:53:08.725Z,100970.38
2022-08-20T18:55:42.676Z,100972.00
2022-08-20T18:58:12.248Z,100977.81
2022-08-20T19:00:45.024Z,100975.97
2022-08-20T19:03:19.900Z,100981.16
2022-08-20T19:05:46.244Z,100974.81
2022-08-20T19:08:17.783Z,100984.47
2022-08-20T19:10:56.470Z,100987.41
2022-08-20T19:13:51.707Z,100995.13
2022-08-20T19:16:40.760Z,100999.75
2022-08-20T19:19:20.113Z,100998.44
2022-08-20T19:21:47.468Z,100999.34
2022-08-20T19:24:18.838Z,100998.53
2022-08-20T19:26:51.425Z,101004.22
2022-08-20T19:29:24.565Z,100998.94
2022-08-20T19:31:57.845Z,100998.72
2022-08-20T19:34:25.662Z,100999.59
2022-08-20T19:36:57.483Z,101000.75
2022-08-20T19:39:28.872Z,101004.94
2022-08-20T19:42:03.847Z,101005.25
2022-08-20T19:44:40.840Z,101002.75
2022-08-20T19:47:19.429Z,101005.25
2022-08-20T19:50:15.499Z,101003.34
2022-08-20T19:53:01.507Z,101010.38
2022-08-20T19:55:34.166Z,101001.13
2022-08-20T19:58:05.135Z,101004.78
2022-08-20T20:00:42.211Z,101009.53
2022-08-20T20:03:11.785Z,101007.31
2022-08-20T20:06:17.296Z,101015.44
2022-08-20T20:08:56.138Z,101006.75
2022-08-20T20:11:29.679Z,101017.41
2022-08-20T20:14:07.747Z,101022.47
2022-08-20T20:16:35.392Z,101030.28
2022-08-20T20:19:25.421Z,101018.50
2022-08-20T20:22:19.656Z,101022.41
2022-08-20T20:24:56.645Z,101035.56
2022-08-20T20:27:26.349Z,101038.06
2022-08-20T20:30:00.341Z,101041.69
2022-08-20T20:32:29.049Z,101036.34
2022-08-20T20:34:58.036Z,101045.28
2022-08-20T20:37:49.333Z,101041.66
2022-08-20T20:40:27.069Z,101035.47
2022-08-20T20:42:58.459Z,101029.81
2022-08-20T20:45:34.431Z,101032.59
2022-08-20T20:48:10.298Z,101032.81
2022-08-20T20:50:39.864Z,101031.13
2022-08-20T20:53:06.441Z,101032.50
2022-08-20T20:55:35.704Z,101037.78
2022-08-20T20:58:02.926Z,101032.44
2022-08-20T21:00:32.508Z,101035.75
2022-08-20T21:03:00.442Z,101026.50
2022-08-20T21:05:32.142Z,101024.22
2022-08-20T21:08:01.865Z,101027.81
2022-08-20T21:10:32.390Z,101026.94
2022-08-20T21:12:59.949Z,101025.78
2022-08-20T21:15:26.903Z,101030.75
2022-08-20T21:17:57.505Z,101036.56
2022-08-20T21:20:24.150Z,101037.34
2022-08-20T21:22:51.001Z,101035.34
2022-08-20T21:25:20.896Z,101041.16
2022-08-20T21:27:49.789Z,101035.53
2022-08-20T21:30:17.384Z,101050.28
2022-08-20T21:32:43.881Z,101048.56
2022-08-20T21:35:11.144Z,101058.03
2022-08-20T21:37:37.925Z,101059.06
2022-08-20T21:40:06.799Z,101047.03
2022-08-20T21:42:33.621Z,101046.97
2022-08-20T21:45:06.205Z,101041.59
2022-08-20T21:47:32.770Z,101045.72
2022-08-20T21:49:59.415Z,101054.53
2022-08-20T21:52:25.950Z,101049.72
2022-08-20T21:54:52.445Z,101051.81
2022-08-20T21:57:25.586Z,101055.97
2022-08-20T21:59:52.381Z,101051.75
2022-08-20T22:02:19.817Z,101048.72
2022-08-20T22:04:46.263Z,101053.44
2022-08-20T22:07:12.837Z,101047.03
2022-08-20T22:09:39.376Z,101057.63
2022-08-20T22:12:13.287Z,101059.81
2022-08-20T22:14:39.670Z,101056.13
2022-08-20T22:17:06.127Z,101060.84
2022-08-20T22:19:32.612Z,101059.16
2022-08-20T22:21:59.013Z,101052.50
2022-08-20T22:24:28.570Z,101055.00
2022-08-20T22:26:55.585Z,101050.78
2022-08-20T22:29:22.113Z,101054.13
2022-08-20T22:31:48.893Z,101053.50
2022-08-20T22:34:18.337Z,101058.44
2022-08-20T22:36:44.956Z,101062.59
2022-08-20T22:39:11.420Z,101055.00
2022-08-20T22:41:38.587Z,101059.41
2022-08-20T22:44:05.806Z,101057.16
2022-08-20T22:46:37.986Z,101056.81
2022-08-20T22:49:09.251Z,101057.03
2022-08-20T22:51:38.733Z,101062.28
2022-08-20T22:54:08.428Z,101063.28
2022-08-20T22:56:34.878Z,101064.31
2022-08-20T22:59:01.940Z,101066.22
2022-08-20T23:01:29.016Z,101064.19
2022-08-20T23:04:01.746Z,101071.34
2022-08-20T23:06:29.478Z,101064.59
2022-08-20T23:08:56.185Z,101071.53
2022-08-20T23:11:22.580Z,101075.56
2022-08-20T23:13:49.242Z,101073.22
2022-08-20T23:16:15.730Z,101065.03
2022-08-20T23:18:42.314Z,101077.16
2022-08-20T23:21:08.833Z,101073.81
2022-08-20T23:23:35.513Z,101073.47
2022-08-20T23:26:02.154Z,101072.28
2022-08-20T23:28:28.848Z,101071.94
2022-08-20T23:30:55.363Z,101078.53
2022-08-20T23:33:22.162Z,101080.13
2022-08-20T23:35:48.878Z,101079.19
2022-08-20T23:38:15.686Z,101078.84
2022-08-20T23:40:42.602Z,101081.03
2022-08-20T23:43:09.840Z,101087.59
2022-08-20T23:45:39.878Z,101080.25
2022-08-20T23:48:07.800Z,101087.41
2022-08-20T23:50:34.347Z,101083.44
2022-08-20T23:53:00.927Z,101090.59
2022-08-20T23:55:27.383Z,101088.91
2022-08-20T23:57:53.992Z,101087.72
